Time;durP1;ratioP1;P1;durP2;ratioP2;P2;SDS_P1;SDS_P2;PMS_P1;PMS_P2;Temp;Humidity;BMP_temperature;BMP_pressure;BME280_temperature;BME280_humidity;BME280_pressure;Samples;Min_cycle;Max_cycle;Signal;HPM_P1;HPM_P2
2022/06/25 00:09:37;;;;;;;4.97;2.70;;;;;16.40;100379.00;;;;10375425;28;20201;-77
2022/06/25 00:14:39;;;;;;;6.83;2.90;;;;;16.40;100379.00;;;;10394152;28;20196;-76
2022/06/25 00:19:41;;;;;;;8.27;2.47;;;;;16.30;100383.00;;;;10396229;28;20187;-77
2022/06/25 00:24:43;;;;;;;3.97;2.40;;;;;16.30;100376.00;;;;10350408;28;20211;-77
2022/06/25 00:29:45;;;;;;;3.63;2.70;;;;;16.20;100380.00;;;;10387133;28;20196;-77
2022/06/25 00:34:47;;;;;;;4.73;2.23;;;;;16.20;100375.00;;;;10386836;28;20214;-77
2022/06/25 00:39:50;;;;;;;4.57;2.67;;;;;16.20;100378.00;;;;10395704;28;20191;-77
2022/06/25 00:44:53;;;;;;;4.07;2.57;;;;;16.10;100373.00;;;;10380522;28;20330;-76
2022/06/25 00:49:55;;;;;;;4.77;2.60;;;;;16.10;100384.00;;;;10399036;28;20186;-77
2022/06/25 00:55:11;;;;;;;4.00;3.00;;;;;16.00;100386.00;;;;10363872;28;20242;-77
2022/06/25 01:00:15;;;;;;;3.77;3.37;;;;;16.00;100384.00;;;;10402727;28;20232;-77
2022/06/25 01:05:17;;;;;;;5.47;3.00;;;;;16.00;100383.00;;;;10382647;28;20230;-77
2022/06/25 01:10:19;;;;;;;5.63;2.70;;;;;16.00;100395.00;;;;10398391;28;20190;-77
2022/06/25 01:15:23;;;;;;;5.10;3.00;;;;;15.90;100394.00;;;;10395695;28;20187;-77
2022/06/25 01:20:25;;;;;;;4.13;3.03;;;;;15.90;100392.00;;;;10378555;28;20565;-77
2022/06/25 01:25:36;;;;;;;3.70;2.93;;;;;15.90;100400.00;;;;10390312;28;20213;-77
2022/06/25 01:30:38;;;;;;;6.20;3.00;;;;;15.80;100405.00;;;;10397020;28;20194;-77
2022/06/25 01:35:40;;;;;;;4.83;2.77;;;;;15.80;100401.00;;;;10394152;28;20202;-77
2022/06/25 01:40:42;;;;;;;8.03;3.70;;;;;15.90;100410.00;;;;10380845;28;20206;-77
2022/06/25 01:45:46;;;;;;;5.47;3.00;;;;;16.00;100405.00;;;;10398775;28;20206;-77
2022/06/25 01:50:48;;;;;;;5.20;2.80;;;;;16.10;100413.00;;;;10363235;28;20230;-77
2022/06/25 01:55:50;;;;;;;3.13;2.47;;;;;16.30;100409.00;;;;10397618;28;20205;-77
2022/06/25 02:00:52;;;;;;;5.60;3.00;;;;;16.20;100413.00;;;;10416397;28;20305;-77
2022/06/25 02:05:58;;;;;;;2.70;2.13;;;;;16.10;100423.00;;;;10377727;28;20539;-77
2022/06/25 02:11:01;;;;;;;7.67;2.80;;;;;16.00;100430.00;;;;10403727;28;20696;-77
2022/06/25 02:16:05;;;;;;;6.13;2.80;;;;;16.00;100423.00;;;;10435936;28;20274;-77
2022/06/25 02:21:10;;;;;;;5.20;2.60;;;;;16.00;100422.00;;;;10397395;28;20191;-77
2022/06/25 02:26:11;;;;;;;6.87;3.20;;;;;16.00;100433.00;;;;10385674;28;20211;-77
2022/06/25 02:31:14;;;;;;;5.73;3.13;;;;;16.00;100438.00;;;;10402934;28;20233;-77
2022/06/25 02:36:16;;;;;;;9.20;3.00;;;;;16.00;100439.00;;;;10364633;28;20188;-77
2022/06/25 02:41:18;;;;;;;5.00;3.17;;;;;15.90;100443.00;;;;10403139;28;20222;-77
2022/06/25 02:46:20;;;;;;;6.23;3.27;;;;;15.90;100451.00;;;;10423234;28;20225;-77
2022/06/25 02:51:28;;;;;;;4.13;2.97;;;;;15.90;100451.00;;;;10434405;28;20187;-77
2022/06/25 03:01:55;;;;;;;3.77;2.77;;;;;15.90;100455.00;;;;10383379;28;20618;-77
2022/06/25 03:07:02;;;;;;;5.50;3.37;;;;;16.00;100453.00;;;;10400777;28;20301;-77
2022/06/25 03:12:06;;;;;;;5.10;3.77;;;;;16.00;100452.00;;;;10401512;28;20214;-77
2022/06/25 03:17:10;;;;;;;3.80;2.73;;;;;16.00;100458.00;;;;10399479;28;20202;-77
2022/06/25 03:22:31;;;;;;;4.87;3.00;;;;;16.00;100458.00;;;;10403410;28;20194;-77
2022/06/25 03:27:33;;;;;;;10.47;2.87;;;;;16.00;100454.00;;;;10440961;28;20260;-77
2022/06/25 03:32:44;;;;;;;3.77;2.90;;;;;16.10;100459.00;;;;10391987;28;20194;-77
2022/06/25 03:38:06;;;;;;;5.87;3.00;;;;;16.20;100471.00;;;;10441738;28;20308;-77
2022/06/25 03:43:08;;;;;;;5.83;2.70;;;;;16.30;100479.00;;;;10432259;28;20669;-77
2022/06/25 03:48:11;;;;;;;6.83;2.90;;;;;16.40;100479.00;;;;10389417;28;20210;-77
2022/06/25 03:53:32;;;;;;;2.90;2.60;;;;;16.50;100472.00;;;;10411386;28;20752;-77
2022/06/25 03:58:35;;;;;;;3.63;3.13;;;;;16.60;100480.00;;;;10433327;28;20313;-77
2022/06/25 04:03:37;;;;;;;4.73;3.00;;;;;16.70;100481.00;;;;10413405;28;20226;-77
2022/06/25 04:08:42;;;;;;;7.97;3.20;;;;;16.80;100485.00;;;;10366942;28;20183;-77
2022/06/25 04:13:48;;;;;;;4.80;3.17;;;;;17.00;100485.00;;;;10440278;28;20660;-77
2022/06/25 04:18:50;;;;;;;5.07;2.70;;;;;17.10;100495.00;;;;10453559;28;20183;-77
2022/06/25 04:23:55;;;;;;;9.40;3.25;;;;;17.30;100489.00;;;;10350963;28;20207;-77
2022/06/25 04:29:06;;;;;;;4.53;2.97;;;;;17.60;100488.00;;;;10397635;28;20195;-77
2022/06/25 04:34:13;;;;;;;4.45;3.08;;;;;17.80;100487.00;;;;10347811;28;20205;-77
2022/06/25 04:39:15;;;;;;;6.10;2.72;;;;;18.00;100489.00;;;;10396209;28;20518;-77
2022/06/25 04:44:18;;;;;;;7.65;2.53;;;;;18.20;100494.00;;;;10381492;28;20221;-77
2022/06/25 04:49:20;;;;;;;4.93;2.22;;;;;18.10;100491.00;;;;10396878;28;20203;-77
2022/06/25 04:54:23;;;;;;;5.93;2.60;;;;;18.00;100489.00;;;;10397314;28;20187;-77
2022/06/25 04:59:39;;;;;;;6.28;2.33;;;;;17.90;100507.00;;;;10377833;28;20688;-77
2022/06/25 05:04:47;;;;;;;3.55;2.15;;;;;17.90;100515.00;;;;10404031;28;20199;-77
2022/06/25 05:09:49;;;;;;;3.53;2.53;;;;;17.90;100515.00;;;;10379872;28;20190;-77
2022/06/25 05:14:53;;;;;;;5.95;1.95;;;;;18.00;100514.00;;;;10363083;28;20282;-77
2022/06/25 05:19:55;;;;;;;3.22;2.22;;;;;18.10;100519.00;;;;10364776;28;20661;-77
2022/06/25 05:24:57;;;;;;;5.35;2.03;;;;;18.20;100532.00;;;;10436268;28;20232;-77
2022/06/25 05:30:00;;;;;;;3.88;1.88;;;;;18.30;100531.00;;;;10435113;28;20708;-77
2022/06/25 05:35:02;;;;;;;6.93;2.38;;;;;18.40;100544.00;;;;10416621;28;20201;-77
2022/06/25 05:40:05;;;;;;;7.30;2.50;;;;;18.60;100553.00;;;;10394844;28;20199;-77
2022/06/25 05:45:08;;;;;;;6.90;2.33;;;;;18.80;100560.00;;;;10393865;28;20301;-77
2022/06/25 05:50:10;;;;;;;3.60;2.15;;;;;18.90;100565.00;;;;10393159;28;20201;-77
2022/06/25 05:55:12;;;;;;;4.40;1.67;;;;;18.80;100564.00;;;;10411903;28;20187;-77
2022/06/25 06:00:15;;;;;;;4.07;2.13;;;;;18.70;100568.00;;;;10429894;28;20230;-77
2022/06/25 06:05:17;;;;;;;3.80;1.85;;;;;18.70;100582.00;;;;10399256;28;20225;-77
2022/06/25 06:10:19;;;;;;;5.15;1.60;;;;;18.90;100580.00;;;;10416844;28;20200;-77
2022/06/25 06:15:21;;;;;;;4.70;1.90;;;;;19.30;100576.00;;;;10422432;28;20265;-77
2022/06/25 06:20:23;;;;;;;5.68;2.58;;;;;19.70;100581.00;;;;10409678;28;20199;-77
2022/06/25 06:25:25;;;;;;;6.28;1.73;;;;;20.10;100586.00;;;;10393768;28;20195;-77
2022/06/25 06:30:27;;;;;;;5.85;1.85;;;;;20.60;100593.00;;;;10410959;28;20708;-77
2022/06/25 06:35:36;;;;;;;4.32;1.92;;;;;21.20;100593.00;;;;10410593;28;20734;-76
2022/06/25 06:40:38;;;;;;;2.80;1.40;;;;;21.40;100603.00;;;;10411400;28;20199;-76
2022/06/25 06:45:40;;;;;;;3.95;1.52;;;;;21.50;100606.00;;;;10394225;28;20298;-77
2022/06/25 06:50:42;;;;;;;4.75;1.55;;;;;21.80;100612.00;;;;10397238;28;20194;-77
2022/06/25 06:55:44;;;;;;;4.97;1.30;;;;;22.10;100611.00;;;;10381231;28;20187;-77
2022/06/25 07:00:46;;;;;;;6.90;2.10;;;;;22.10;100615.00;;;;10387559;28;20637;-77
2022/06/25 07:05:48;;;;;;;4.22;1.60;;;;;22.10;100613.00;;;;10377589;28;20575;-77
2022/06/25 07:10:56;;;;;;;6.20;1.52;;;;;21.80;100617.00;;;;10402831;28;20282;-77
2022/06/25 07:15:58;;;;;;;7.40;1.50;;;;;22.40;100623.00;;;;10401697;28;20643;-77
2022/06/25 07:21:00;;;;;;;3.85;1.40;;;;;22.50;100619.00;;;;10368223;28;20270;-77
2022/06/25 07:26:02;;;;;;;2.60;1.20;;;;;22.80;100622.00;;;;10393057;28;20302;-77
2022/06/25 07:31:07;;;;;;;4.78;1.55;;;;;23.10;100612.00;;;;10381485;28;20203;-76
2022/06/25 07:36:09;;;;;;;4.22;1.30;;;;;24.10;100617.00;;;;10407281;28;20191;-75
2022/06/25 07:41:11;;;;;;;3.85;1.17;;;;;25.10;100616.00;;;;10365085;28;20203;-76
2022/06/25 07:46:13;;;;;;;3.75;1.02;;;;;24.20;100621.00;;;;10386656;28;20254;-76
2022/06/25 07:56:36;;;;;;;2.15;1.02;;;;;23.50;100626.00;;;;10390568;28;20237;-75
2022/06/25 08:01:38;;;;;;;2.80;1.60;;;;;23.20;100624.00;;;;10374936;28;20817;-76
2022/06/25 08:06:41;;;;;;;2.47;1.10;;;;;24.00;100621.00;;;;10347657;28;20622;-75
2022/06/25 08:11:49;;;;;;;4.20;1.40;;;;;24.90;100627.00;;;;10340791;28;20183;-75
2022/06/25 08:16:51;;;;;;;3.55;1.23;;;;;25.70;100618.00;;;;10353704;28;20684;-76
2022/06/25 08:21:53;;;;;;;5.75;1.40;;;;;25.50;100625.00;;;;10418370;28;20195;-76
2022/06/25 08:26:55;;;;;;;2.35;1.15;;;;;25.10;100632.00;;;;10363730;28;20620;-76
2022/06/25 08:31:58;;;;;;;3.10;1.45;;;;;25.00;100637.00;;;;10365358;28;20563;-76
2022/06/25 08:37:00;;;;;;;6.63;1.48;;;;;25.30;100629.00;;;;10381253;28;20184;-75
2022/06/25 08:42:04;;;;;;;4.18;1.60;;;;;26.70;100629.00;;;;10380101;28;20746;-76
2022/06/25 08:47:06;;;;;;;5.15;1.70;;;;;27.70;100628.00;;;;10368497;28;20578;-76
2022/06/25 08:52:10;;;;;;;3.47;2.03;;;;;27.10;100638.00;;;;10377859;28;20183;-76
2022/06/25 08:57:12;;;;;;;3.25;1.90;;;;;25.90;100638.00;;;;10369132;28;20211;-76
2022/06/25 09:02:14;;;;;;;6.20;2.28;;;;;27.00;100610.00;;;;10384506;28;20195;-77
2022/06/25 09:07:19;;;;;;;8.73;2.13;;;;;28.80;100617.00;;;;10376984;28;20234;-76
2022/06/25 09:12:22;;;;;;;4.90;2.38;;;;;29.50;100617.00;;;;10378093;28;20192;-76
2022/06/25 09:17:24;;;;;;;4.15;2.28;;;;;29.50;100611.00;;;;10380272;28;20236;-76
2022/06/25 09:22:27;;;;;;;5.32;1.40;;;;;28.60;100621.00;;;;10402573;28;20183;-76
2022/06/25 09:27:38;;;;;;;4.65;1.73;;;;;27.20;100618.00;;;;10381183;28;20203;-76
2022/06/25 09:32:53;;;;;;;4.75;1.42;;;;;27.40;100622.00;;;;10400001;28;20245;-76
2022/06/25 09:38:05;;;;;;;3.03;1.42;;;;;27.90;100622.00;;;;10397357;28;20659;-76
2022/06/25 09:43:16;;;;;;;4.20;1.60;;;;;28.20;100624.00;;;;10394127;28;20699;-76
2022/06/25 09:48:26;;;;;;;2.65;1.20;;;;;29.10;100625.00;;;;10371823;28;20481;-76
2022/06/25 09:53:28;;;;;;;3.08;1.33;;;;;28.80;100625.00;;;;10366243;28;20265;-76
2022/06/25 09:58:34;;;;;;;2.17;1.20;;;;;28.70;100627.00;;;;10378898;28;20281;-76
2022/06/25 10:03:38;;;;;;;3.30;1.17;;;;;27.90;100616.00;;;;10369822;28;20565;-76
2022/06/25 10:08:49;;;;;;;1.88;1.30;;;;;28.80;100609.00;;;;10402965;28;20203;-76
2022/06/25 10:13:52;;;;;;;3.83;1.45;;;;;27.30;100621.00;;;;10404726;28;20839;-76
2022/06/25 10:18:54;;;;;;;4.55;1.30;;;;;29.20;100627.00;;;;10375257;28;20199;-76
2022/06/25 10:24:01;;;;;;;3.35;1.25;;;;;28.70;100626.00;;;;10375502;28;20249;-76
2022/06/25 10:29:25;;;;;;;2.75;1.67;;;;;29.20;100615.00;;;;10408775;28;20207;-75
2022/06/25 10:34:27;;;;;;;4.65;1.50;;;;;29.60;100622.00;;;;10384735;28;20218;-75
2022/06/25 10:39:32;;;;;;;2.45;1.27;;;;;29.00;100611.00;;;;10415381;28;20195;-76
2022/06/25 10:44:34;;;;;;;1.75;1.05;;;;;27.00;100613.00;;;;10376394;28;20205;-76
2022/06/25 10:49:36;;;;;;;1.10;1.00;;;;;25.50;100616.00;;;;10370757;28;20196;-75
2022/06/25 10:54:38;;;;;;;4.18;1.20;;;;;24.50;100610.00;;;;10360966;28;20274;-75
2022/06/25 10:59:47;;;;;;;2.30;0.93;;;;;23.50;100613.00;;;;10394651;28;20229;-76
2022/06/25 11:04:52;;;;;;;2.72;1.20;;;;;23.30;100619.00;;;;10422317;28;20205;-76
2022/06/25 11:09:57;;;;;;;6.80;2.13;;;;;23.20;100627.00;;;;10398984;28;20545;-76
2022/06/25 11:15:05;;;;;;;5.55;1.60;;;;;24.30;100619.00;;;;10416522;28;20187;-76
2022/06/25 11:20:10;;;;;;;5.55;1.83;;;;;25.90;100617.00;;;;10379109;28;20206;-76
2022/06/25 11:30:33;;;;;;;4.40;1.83;;;;;27.20;100614.00;;;;10383316;28;20198;-76
2022/06/25 11:35:44;;;;;;;2.20;1.40;;;;;26.90;100608.00;;;;10373595;28;20199;-75
2022/06/25 11:40:46;;;;;;;3.35;1.88;;;;;27.00;100613.00;;;;10373951;28;20620;-76
2022/06/25 11:45:50;;;;;;;3.47;1.30;;;;;28.50;100599.00;;;;10397728;28;20211;-76
2022/06/25 11:50:58;;;;;;;2.78;0.95;;;;;28.10;100600.00;;;;10390103;28;20198;-76
2022/06/25 11:56:06;;;;;;;1.92;0.98;;;;;29.20;100602.00;;;;10374354;28;20187;-75
2022/06/25 12:01:08;;;;;;;1.58;0.90;;;;;29.20;100603.00;;;;10386241;28;20657;-76
2022/06/25 12:06:11;;;;;;;0.82;0.82;;;;;28.90;100591.00;;;;10391585;28;20198;-76
2022/06/25 12:11:12;;;;;;;2.95;1.00;;;;;29.50;100596.00;;;;10382238;28;20186;-76
2022/06/25 12:16:14;;;;;;;1.30;0.80;;;;;29.60;100598.00;;;;10360383;28;20237;-76
2022/06/25 12:21:20;;;;;;;2.13;0.93;;;;;29.70;100594.00;;;;10393803;28;20209;-76
2022/06/25 12:26:33;;;;;;;5.55;1.38;;;;;29.50;100593.00;;;;10413467;28;20241;-76
2022/06/25 12:31:36;;;;;;;3.10;0.90;;;;;29.60;100597.00;;;;10380852;28;20667;-76
2022/06/25 12:36:39;;;;;;;2.22;1.10;;;;;30.00;100583.00;;;;10364171;28;20183;-76
2022/06/25 12:41:46;;;;;;;3.15;1.17;;;;;30.60;100591.00;;;;10380841;28;20290;-76
2022/06/25 12:47:11;;;;;;;3.47;0.90;;;;;30.30;100579.00;;;;10379579;28;20237;-76
2022/06/25 12:52:19;;;;;;;2.85;1.30;;;;;29.70;100587.00;;;;10411341;28;20291;-76
2022/06/25 12:57:30;;;;;;;3.90;1.25;;;;;29.10;100575.00;;;;10411847;28;20257;-76
2022/06/25 13:02:32;;;;;;;2.70;1.20;;;;;28.90;100582.00;;;;10405392;28;20199;-76
2022/06/25 13:07:35;;;;;;;3.17;1.17;;;;;28.50;100579.00;;;;10397535;28;20253;-77
2022/06/25 13:12:39;;;;;;;1.55;1.27;;;;;28.10;100593.00;;;;10377570;28;20675;-76
2022/06/25 13:17:41;;;;;;;2.25;1.20;;;;;27.40;100583.00;;;;10368918;28;20183;-76
2022/06/25 13:22:44;;;;;;;2.20;1.10;;;;;26.90;100593.00;;;;10377791;28;20218;-76
2022/06/25 13:27:46;;;;;;;1.25;1.05;;;;;25.90;100613.00;;;;10387138;28;20207;-77
2022/06/25 13:32:48;;;;;;;2.88;1.50;;;;;24.40;100620.00;;;;10377439;28;20203;-77
2022/06/25 13:37:50;;;;;;;3.25;1.30;;;;;23.60;100618.00;;;;10365541;28;20261;-77
2022/06/25 13:42:52;;;;;;;4.75;1.40;;;;;23.30;100629.00;;;;10394706;28;20191;-77
2022/06/25 13:47:54;;;;;;;2.42;1.27;;;;;23.10;100616.00;;;;10376806;28;20200;-77
2022/06/25 13:52:56;;;;;;;4.10;1.92;;;;;23.10;100636.00;;;;10373389;28;20641;-76
2022/06/25 13:57:58;;;;;;;3.67;1.73;;;;;22.90;100629.00;;;;10401281;28;20232;-77
2022/06/25 14:03:00;;;;;;;2.75;1.63;;;;;22.90;100632.00;;;;10376641;28;20198;-77
2022/06/25 14:08:02;;;;;;;2.88;1.90;;;;;23.10;100633.00;;;;10445560;28;20256;-76
2022/06/25 14:13:04;;;;;;;4.20;1.65;;;;;24.10;100635.00;;;;10410571;28;20195;-76
2022/06/25 14:18:06;;;;;;;4.85;2.03;;;;;24.60;100631.00;;;;10430471;28;20208;-76
2022/06/25 14:23:08;;;;;;;4.88;1.83;;;;;25.40;100630.00;;;;10461123;28;20653;-77
2022/06/25 14:28:10;;;;;;;3.55;1.90;;;;;25.40;100627.00;;;;10425618;28;20225;-76
2022/06/25 14:33:12;;;;;;;4.53;1.88;;;;;25.10;100621.00;;;;10411409;28;20206;-77
2022/06/25 14:43:35;;;;;;;2.92;1.95;;;;;24.50;100618.00;;;;10409951;28;20187;-77
2022/06/25 14:48:36;;;;;;;5.70;2.35;;;;;24.50;100611.00;;;;10360057;28;20224;-76
2022/06/25 14:53:38;;;;;;;2.70;2.20;;;;;23.90;100614.00;;;;10416247;28;20218;-76
2022/06/25 14:58:40;;;;;;;6.93;2.05;;;;;23.10;100631.00;;;;10399809;28;20218;-77
2022/06/25 15:03:42;;;;;;;4.68;2.20;;;;;22.40;100626.00;;;;10415903;28;20198;-76
2022/06/25 15:08:45;;;;;;;3.05;2.38;;;;;22.10;100635.00;;;;10399878;28;20199;-77
2022/06/25 15:13:47;;;;;;;4.50;2.63;;;;;21.20;100651.00;;;;10402870;28;20194;-76
2022/06/25 15:18:49;;;;;;;4.10;2.55;;;;;20.80;100672.00;;;;10456926;28;20245;-76
2022/06/25 15:23:51;;;;;;;3.58;3.08;;;;;20.60;100664.00;;;;10402881;28;20191;-76
2022/06/25 15:28:53;;;;;;;5.50;2.42;;;;;19.90;100677.00;;;;10382429;28;20202;-76
2022/06/25 15:33:55;;;;;;;4.82;1.92;;;;;19.20;100675.00;;;;10390679;28;20210;-76
2022/06/25 15:38:57;;;;;;;4.18;1.98;;;;;18.80;100689.00;;;;10400287;28;20191;-76
2022/06/25 15:43:58;;;;;;;3.15;2.72;;;;;19.00;100682.00;;;;10391497;28;20278;-76
2022/06/25 15:49:02;;;;;;;6.13;3.15;;;;;19.50;100682.00;;;;10378870;28;20751;-76
2022/06/25 15:54:04;;;;;;;3.65;2.50;;;;;19.50;100680.00;;;;10374248;28;20222;-76
2022/06/25 16:04:29;;;;;;;2.60;1.98;;;;;19.40;100676.00;;;;10416454;28;20205;-76
2022/06/25 16:09:32;;;;;;;5.90;2.22;;;;;19.80;100673.00;;;;10397228;28;20214;-76
2022/06/25 16:14:34;;;;;;;5.38;2.20;;;;;19.80;100683.00;;;;10417761;28;20730;-77
2022/06/25 16:19:36;;;;;;;5.93;2.78;;;;;19.50;100678.00;;;;10406450;28;20256;-76
2022/06/25 16:24:38;;;;;;;5.63;2.85;;;;;19.40;100670.00;;;;10439205;28;20640;-76
2022/06/25 16:29:40;;;;;;;5.05;2.83;;;;;19.60;100672.00;;;;10421828;28;20217;-76
2022/06/25 16:34:42;;;;;;;4.75;2.65;;;;;19.40;100668.00;;;;10421735;28;20265;-76
2022/06/25 16:39:45;;;;;;;5.78;3.50;;;;;19.30;100669.00;;;;10396548;28;20677;-76
2022/06/25 16:44:47;;;;;;;3.13;2.10;;;;;19.10;100665.00;;;;10359774;28;20208;-76
2022/06/25 16:49:49;;;;;;;3.20;2.20;;;;;19.00;100670.00;;;;10438028;28;20228;-76
2022/06/25 16:54:51;;;;;;;6.53;2.88;;;;;18.80;100664.00;;;;10414610;28;20262;-76
2022/06/25 16:59:53;;;;;;;3.25;2.40;;;;;18.80;100655.00;;;;10399238;28;20627;-76
2022/06/25 17:04:55;;;;;;;4.22;2.60;;;;;18.80;100670.00;;;;10411736;28;20896;-76
2022/06/25 17:09:57;;;;;;;4.68;1.92;;;;;18.60;100664.00;;;;10437316;28;20210;-76
2022/06/25 17:14:59;;;;;;;4.60;1.75;;;;;18.30;100656.00;;;;10437091;28;20244;-76
2022/06/25 17:20:01;;;;;;;3.30;2.05;;;;;18.00;100655.00;;;;10436739;28;20190;-76
2022/06/25 17:25:17;;;;;;;4.75;2.38;;;;;17.90;100654.00;;;;10529635;27;21130;-76
2022/06/25 17:30:19;;;;;;;2.83;1.83;;;;;18.10;100655.00;;;;10473335;28;20196;-76
2022/06/25 17:35:21;;;;;;;3.30;2.10;;;;;18.20;100665.00;;;;10488898;28;20219;-76
2022/06/25 17:40:23;;;;;;;4.53;2.97;;;;;18.20;100665.00;;;;10485071;28;20541;-75
2022/06/25 17:45:25;;;;;;;7.50;2.50;;;;;18.10;100649.00;;;;10454743;28;20661;-76
2022/06/25 17:50:27;;;;;;;4.63;2.90;;;;;18.10;100666.00;;;;10445031;28;20217;-76
2022/06/25 17:55:29;;;;;;;5.50;2.95;;;;;18.00;100658.00;;;;10472382;28;20200;-76
2022/06/25 18:00:32;;;;;;;3.97;2.67;;;;;17.90;100670.00;;;;10452678;28;20283;-76
2022/06/25 18:05:34;;;;;;;4.93;2.85;;;;;17.80;100671.00;;;;10449598;28;20209;-75
2022/06/25 18:10:36;;;;;;;5.97;3.40;;;;;17.60;100675.00;;;;10428862;28;20248;-78
2022/06/25 18:15:38;;;;;;;4.93;3.08;;;;;17.30;100674.00;;;;10428593;28;20556;-76
2022/06/25 18:20:40;;;;;;;6.18;3.22;;;;;17.00;100680.00;;;;10482875;28;20213;-76
2022/06/25 18:25:42;;;;;;;6.28;3.88;;;;;16.80;100675.00;;;;10485369;28;20202;-76
2022/06/25 18:30:45;;;;;;;5.43;3.45;;;;;16.80;100686.00;;;;10492619;28;20182;-75
2022/06/25 18:35:48;;;;;;;5.57;3.30;;;;;16.80;100674.00;;;;10407748;28;20202;-76
2022/06/25 18:40:50;;;;;;;7.27;3.87;;;;;16.70;100676.00;;;;10415570;28;20694;-75
2022/06/25 18:45:52;;;;;;;4.45;3.20;;;;;16.70;100670.00;;;;10399377;28;20705;-76
2022/06/25 18:50:53;;;;;;;5.70;3.40;;;;;16.50;100678.00;;;;10399235;28;20305;-76
2022/06/25 18:55:55;;;;;;;5.78;3.67;;;;;16.30;100661.00;;;;10433517;28;20199;-75
2022/06/25 19:00:57;;;;;;;6.57;4.13;;;;;16.30;100668.00;;;;10428146;28;20234;-76
2022/06/25 19:05:59;;;;;;;18.20;14.27;;;;;16.30;100656.00;;;;10414914;28;20769;-76
2022/06/25 19:11:02;;;;;;;26.38;21.85;;;;;16.40;100657.00;;;;10424874;28;20644;-75
2022/06/25 19:16:04;;;;;;;26.80;12.93;;;;;16.50;100679.00;;;;10456463;28;20220;-76
2022/06/25 19:21:06;;;;;;;15.60;12.23;;;;;16.40;100676.00;;;;10396985;28;20227;-76
2022/06/25 19:26:08;;;;;;;15.40;11.37;;;;;16.30;100661.00;;;;10457827;28;20205;-76
2022/06/25 19:31:12;;;;;;;9.93;5.83;;;;;16.20;100663.00;;;;10452660;28;20194;-75
2022/06/25 19:36:14;;;;;;;7.47;4.47;;;;;16.20;100661.00;;;;10397408;28;20245;-76
2022/06/25 19:41:16;;;;;;;7.13;4.00;;;;;16.10;100685.00;;;;10397032;28;20214;-75
2022/06/25 19:46:19;;;;;;;10.00;5.60;;;;;16.00;100677.00;;;;10412656;28;20205;-75
2022/06/25 19:51:21;;;;;;;10.80;4.40;;;;;16.00;100688.00;;;;10396528;28;20199;-76
2022/06/25 19:56:23;;;;;;;15.60;6.05;;;;;15.90;100700.00;;;;10447558;28;20226;-75
2022/06/25 20:01:25;;;;;;;10.37;4.70;;;;;15.90;100709.00;;;;10425564;28;20221;-75
2022/06/25 20:06:27;;;;;;;6.73;4.87;;;;;15.90;100693.00;;;;10396076;28;20187;-76
2022/06/25 20:11:30;;;;;;;10.43;5.17;;;;;15.90;100701.00;;;;10443916;28;20224;-76
2022/06/25 20:16:32;;;;;;;8.63;5.37;;;;;15.90;100691.00;;;;10440800;28;20665;-76
2022/06/25 20:21:34;;;;;;;9.47;5.33;;;;;15.80;100709.00;;;;10395762;28;20215;-75
2022/06/25 20:26:36;;;;;;;12.17;5.67;;;;;15.90;100706.00;;;;10394643;28;20179;-76
2022/06/25 20:31:38;;;;;;;8.47;5.17;;;;;15.90;100702.00;;;;10393831;28;20186;-75
2022/06/25 20:36:40;;;;;;;6.80;4.47;;;;;15.70;100711.00;;;;10395225;28;20660;-76
2022/06/25 20:41:45;;;;;;;6.50;4.20;;;;;15.60;100713.00;;;;10398236;28;20715;-76
2022/06/25 20:46:47;;;;;;;9.40;4.70;;;;;15.50;100704.00;;;;10418569;28;20304;-76
2022/06/25 20:51:50;;;;;;;5.60;3.53;;;;;15.40;100700.00;;;;10460112;28;20280;-75
2022/06/25 20:56:51;;;;;;;7.93;4.20;;;;;15.40;100685.00;;;;10427551;28;20231;-76
2022/06/25 21:01:53;;;;;;;7.47;4.07;;;;;15.30;100682.00;;;;10411456;28;20256;-75
2022/06/25 21:12:16;;;;;;;9.17;4.20;;;;;15.20;100688.00;;;;10431966;28;20178;-78
2022/06/25 21:17:18;;;;;;;5.57;3.57;;;;;15.20;100696.00;;;;10418497;28;20566;-76
2022/06/25 21:22:20;;;;;;;8.40;4.63;;;;;15.30;100691.00;;;;10417697;28;20229;-76
2022/06/25 21:27:22;;;;;;;8.77;4.63;;;;;15.30;100675.00;;;;10478727;28;20189;-76
2022/06/25 21:32:24;;;;;;;5.83;3.90;;;;;15.20;100666.00;;;;10431244;28;20235;-76
2022/06/25 21:37:26;;;;;;;8.30;4.67;;;;;15.20;100677.00;;;;10393899;28;20209;-76
2022/06/25 21:42:28;;;;;;;7.97;4.83;;;;;15.30;100682.00;;;;10392811;28;20206;-76
2022/06/25 21:47:30;;;;;;;11.80;5.23;;;;;15.30;100684.00;;;;10409888;28;20690;-76
2022/06/25 21:52:32;;;;;;;9.57;5.40;;;;;15.30;100668.00;;;;10391621;28;20193;-76
2022/06/25 21:57:34;;;;;;;9.07;5.57;;;;;15.30;100669.00;;;;10444764;28;20242;-76
2022/06/25 22:02:37;;;;;;;12.87;5.37;;;;;15.40;100674.00;;;;10415162;28;20210;-76
2022/06/25 22:07:40;;;;;;;9.67;5.40;;;;;15.40;100677.00;;;;10434955;28;20233;-77
2022/06/25 22:12:42;;;;;;;12.70;5.60;;;;;15.40;100671.00;;;;10465754;28;20182;-76
2022/06/25 22:17:44;;;;;;;8.50;5.97;;;;;15.40;100671.00;;;;10409126;28;20718;-76
2022/06/25 22:22:46;;;;;;;8.43;6.17;;;;;15.40;100677.00;;;;10440487;28;20214;-76
2022/06/25 22:27:48;;;;;;;11.67;6.43;;;;;15.40;100684.00;;;;10440423;28;20248;-76
2022/06/25 22:32:50;;;;;;;11.57;6.00;;;;;15.40;100693.00;;;;10406110;28;20195;-76
2022/06/25 22:37:52;;;;;;;9.60;6.93;;;;;15.30;100702.00;;;;10424735;28;20190;-76
2022/06/25 22:42:54;;;;;;;8.83;6.17;;;;;15.30;100712.00;;;;10424226;28;20682;-76
2022/06/25 22:47:57;;;;;;;9.67;6.00;;;;;15.40;100725.00;;;;10457215;28;20243;-76
2022/06/25 22:52:59;;;;;;;8.87;5.43;;;;;15.40;100726.00;;;;10423893;28;20213;-77
2022/06/25 22:58:02;;;;;;;8.40;5.47;;;;;15.40;100734.00;;;;10439990;28;20616;-77
2022/06/25 23:03:04;;;;;;;10.20;5.77;;;;;15.50;100733.00;;;;10440212;28;20272;-76
2022/06/25 23:08:06;;;;;;;11.03;5.33;;;;;15.50;100733.00;;;;10445029;28;20193;-77
2022/06/25 23:13:10;;;;;;;6.47;5.13;;;;;15.50;100733.00;;;;10447681;28;20233;-76
2022/06/25 23:18:12;;;;;;;9.60;5.73;;;;;15.50;100731.00;;;;10445751;28;20731;-77
2022/06/25 23:23:13;;;;;;;12.13;6.37;;;;;15.40;100726.00;;;;10478894;28;20627;-76
2022/06/25 23:28:16;;;;;;;8.13;5.57;;;;;15.30;100731.00;;;;10498126;28;20206;-76
2022/06/25 23:33:17;;;;;;;11.50;5.80;;;;;15.20;100736.00;;;;10450428;28;20240;-76
2022/06/25 23:38:19;;;;;;;9.27;5.93;;;;;15.20;100750.00;;;;10449071;28;20191;-77
2022/06/25 23:43:21;;;;;;;11.43;6.20;;;;;15.20;100753.00;;;;10382466;28;20579;-76
2022/06/25 23:48:23;;;;;;;12.63;8.17;;;;;15.20;100753.00;;;;10414880;28;20191;-77
2022/06/25 23:53:25;;;;;;;12.33;7.43;;;;;15.20;100755.00;;;;10398197;28;20179;-76
2022/06/25 23:58:28;;;;;;;13.27;7.60;;;;;15.10;100767.00;;;;10423218;28;20293;-76
